createdAt,value
2022-12-28T00:04:29.290Z,3.24
2022-12-28T00:09:35.065Z,3.27
2022-12-28T00:14:40.977Z,3.30
2022-12-28T00:19:46.878Z,3.29
2022-12-28T00:24:52.713Z,3.28
2022-12-28T00:29:58.626Z,3.24
2022-12-28T00:35:06.277Z,3.24
2022-12-28T00:40:16.464Z,3.27
2022-12-28T00:45:27.224Z,3.28
2022-12-28T00:50:33.049Z,3.24
2022-12-28T00:55:39.095Z,3.20
2022-12-28T01:00:45.159Z,3.18
2022-12-28T01:05:50.962Z,3.21
2022-12-28T01:10:56.784Z,3.20
2022-12-28T01:16:09.274Z,3.18
2022-12-28T01:21:17.411Z,3.17
2022-12-28T01:26:23.472Z,3.12
2022-12-28T01:31:30.149Z,3.01
2022-12-28T01:36:35.934Z,2.92
2022-12-28T01:41:44.961Z,2.77
2022-12-28T01:46:55.242Z,2.68
2022-12-28T01:52:06.830Z,2.63
2022-12-28T01:57:14.242Z,2.60
2022-12-28T02:02:21.943Z,2.59
2022-12-28T02:07:36.607Z,2.63
2022-12-28T02:12:43.031Z,2.72
2022-12-28T02:17:49.004Z,2.79
2022-12-28T02:23:28.482Z,2.83
2022-12-28T02:29:24.091Z,2.82
2022-12-28T02:34:38.261Z,2.86
2022-12-28T02:39:49.327Z,2.87
2022-12-28T02:45:13.944Z,2.77
2022-12-28T02:50:21.347Z,2.55
2022-12-28T02:56:10.145Z,2.34
2022-12-28T03:01:29.320Z,2.13
2022-12-28T03:07:04.334Z,1.94
2022-12-28T03:12:19.763Z,1.75
2022-12-28T03:17:47.797Z,1.65
2022-12-28T03:23:16.461Z,1.55
2022-12-28T03:28:46.342Z,1.42
2022-12-28T03:34:06.832Z,1.28
2022-12-28T03:39:29.997Z,1.19
2022-12-28T03:44:38.311Z,1.16
2022-12-28T03:49:44.795Z,1.11
2022-12-28T03:54:51.528Z,1.09
2022-12-28T03:59:58.102Z,1.14
2022-12-28T04:05:04.231Z,1.18
2022-12-28T04:10:11.688Z,1.15
2022-12-28T04:15:17.587Z,1.05
2022-12-28T04:20:23.894Z,0.97
2022-12-28T04:25:29.798Z,0.97
2022-12-28T04:30:35.558Z,0.97
2022-12-28T04:35:41.496Z,0.91
2022-12-28T04:40:47.594Z,0.84
2022-12-28T04:45:59.586Z,0.78
2022-12-28T04:51:10.881Z,0.74
2022-12-28T04:56:18.626Z,0.70
2022-12-28T05:01:25.147Z,0.69
2022-12-28T05:06:31.518Z,0.68
2022-12-28T05:11:37.242Z,0.68
2022-12-28T05:16:43.325Z,0.65
2022-12-28T05:21:49.258Z,0.58
2022-12-28T05:26:55.060Z,0.54
2022-12-28T05:32:00.820Z,0.48
2022-12-28T05:37:06.678Z,0.38
2022-12-28T05:42:12.387Z,0.28
2022-12-28T05:47:18.252Z,0.17
2022-12-28T05:52:24.100Z,0.08
2022-12-28T05:57:30.433Z,0.02
2022-12-28T06:02:36.321Z,-0.08
2022-12-28T06:07:42.407Z,-0.25
2022-12-28T06:12:48.730Z,-0.38
2022-12-28T06:17:55.425Z,-0.43
2022-12-28T06:23:01.131Z,-0.48
2022-12-28T06:28:07.260Z,-0.54
2022-12-28T06:33:13.095Z,-0.63
2022-12-28T06:38:18.680Z,-0.67
2022-12-28T06:43:24.458Z,-0.62
2022-12-28T06:48:31.505Z,-0.58
2022-12-28T06:53:38.867Z,-0.57
2022-12-28T06:58:45.956Z,-0.50
2022-12-28T07:03:53.718Z,-0.42
2022-12-28T07:09:04.752Z,-0.34
2022-12-28T07:14:09.181Z,-0.27
2022-12-28T07:19:15.081Z,-0.16
2022-12-28T07:24:20.819Z,0.00
2022-12-28T07:29:26.531Z,0.11
2022-12-28T07:34:33.255Z,0.22
2022-12-28T07:39:39.190Z,0.40
2022-12-28T07:44:49.128Z,0.64
2022-12-28T07:49:55.348Z,0.82
2022-12-28T07:55:01.499Z,0.97
2022-12-28T08:00:09.295Z,1.15
2022-12-28T08:05:23.929Z,1.31
2022-12-28T08:10:29.537Z,1.43
2022-12-28T08:15:35.436Z,1.54
2022-12-28T08:20:41.223Z,1.69
2022-12-28T08:25:46.909Z,1.84
2022-12-28T08:30:52.743Z,1.91
2022-12-28T08:35:59.420Z,1.99
2022-12-28T08:41:07.697Z,2.10
2022-12-28T08:46:16.456Z,2.29
2022-12-28T08:51:24.576Z,2.51
2022-12-28T08:56:32.589Z,2.70
2022-12-28T09:01:44.170Z,2.80
2022-12-28T09:06:51.172Z,2.88
2022-12-28T09:11:56.825Z,3.07
2022-12-28T09:17:02.617Z,3.23
2022-12-28T09:22:08.492Z,3.26
2022-12-28T09:27:14.385Z,3.28
2022-12-28T09:32:20.254Z,3.38
2022-12-28T09:37:26.015Z,3.49
2022-12-28T09:42:32.804Z,3.64
2022-12-28T09:47:45.891Z,3.83
2022-12-28T09:53:05.431Z,4.00
2022-12-28T09:58:16.676Z,4.14
2022-12-28T10:03:29.274Z,4.25
2022-12-28T10:08:41.034Z,4.28
2022-12-28T10:13:56.674Z,4.36
2022-12-28T10:19:02.661Z,4.48
2022-12-28T10:24:30.983Z,4.63
2022-12-28T10:29:38.621Z,4.82
2022-12-28T10:34:58.631Z,5.05
2022-12-28T10:40:18.502Z,5.19
2022-12-28T10:45:31.872Z,5.30
2022-12-28T10:50:45.964Z,5.43
2022-12-28T10:56:03.447Z,5.45
2022-12-28T11:01:19.382Z,5.42
2022-12-28T11:06:28.127Z,5.32
2022-12-28T11:11:35.122Z,5.26
2022-12-28T11:16:42.570Z,5.16
2022-12-28T11:21:49.361Z,5.06
2022-12-28T11:26:55.746Z,4.96
2022-12-28T11:32:07.164Z,4.85
2022-12-28T11:37:15.312Z,4.70
2022-12-28T11:42:55.177Z,4.59
2022-12-28T11:48:48.644Z,4.59
2022-12-28T11:53:58.518Z,4.60
2022-12-28T11:59:20.736Z,4.63
2022-12-28T12:04:41.206Z,4.64
2022-12-28T12:09:49.128Z,4.59
2022-12-28T12:15:02.369Z,4.58
2022-12-28T12:20:20.292Z,4.58
2022-12-28T12:25:35.385Z,4.62
2022-12-28T12:30:45.009Z,4.69
2022-12-28T12:36:02.873Z,4.73
2022-12-28T12:41:20.782Z,4.72
2022-12-28T12:46:56.271Z,4.67
2022-12-28T12:52:15.962Z,4.52
2022-12-28T12:57:25.642Z,4.40
2022-12-28T13:03:02.400Z,4.35
2022-12-28T13:08:22.643Z,4.34
2022-12-28T13:13:32.889Z,4.32
2022-12-28T13:18:46.463Z,4.25
2022-12-28T13:23:53.196Z,4.18
2022-12-28T13:29:01.473Z,4.09
2022-12-28T13:34:17.541Z,4.04
2022-12-28T13:39:24.656Z,4.04
2022-12-28T13:44:39.393Z,4.02
2022-12-28T13:49:51.985Z,3.97
2022-12-28T13:55:02.124Z,3.90
2022-12-28T14:00:10.538Z,3.90
2022-12-28T14:05:20.366Z,3.92
2022-12-28T14:10:26.905Z,3.90
2022-12-28T14:15:40.873Z,3.84
2022-12-28T14:20:52.221Z,3.76
2022-12-28T14:26:00.443Z,3.63
2022-12-28T14:31:08.367Z,3.56
2022-12-28T14:36:22.430Z,3.53
2022-12-28T14:41:32.884Z,3.49
2022-12-28T14:46:41.283Z,3.45
2022-12-28T14:51:47.164Z,3.41
2022-12-28T14:56:59.400Z,3.39
2022-12-28T15:02:05.889Z,3.43
2022-12-28T15:07:13.794Z,3.52
2022-12-28T15:12:21.827Z,3.58
2022-12-28T15:17:33.484Z,3.61
2022-12-28T15:22:39.575Z,3.63
2022-12-28T15:27:48.395Z,3.63
2022-12-28T15:32:54.324Z,3.70
2022-12-28T15:37:59.998Z,3.78
2022-12-28T15:43:05.843Z,3.82
2022-12-28T15:48:11.662Z,3.81
2022-12-28T15:53:17.784Z,3.79
2022-12-28T15:58:23.507Z,3.80
2022-12-28T16:03:29.584Z,3.87
2022-12-28T16:08:35.426Z,3.95
2022-12-28T16:13:41.588Z,3.99
2022-12-28T16:18:47.705Z,4.00
2022-12-28T16:23:54.387Z,4.00
2022-12-28T16:29:02.060Z,4.04
2022-12-28T16:34:10.535Z,4.05
2022-12-28T16:39:18.242Z,4.03
2022-12-28T16:44:26.868Z,3.99
2022-12-28T16:49:32.734Z,3.97
2022-12-28T16:54:40.727Z,4.02
2022-12-28T16:59:46.723Z,4.08
2022-12-28T17:04:52.622Z,4.10
2022-12-28T17:09:58.380Z,4.10
2022-12-28T17:15:05.512Z,4.12
2022-12-28T17:20:12.807Z,4.20
2022-12-28T17:25:18.615Z,4.25
2022-12-28T17:30:24.450Z,4.27
2022-12-28T17:35:30.253Z,4.26
2022-12-28T17:40:38.203Z,4.25
2022-12-28T17:45:44.400Z,4.25
2022-12-28T17:50:50.160Z,4.31
2022-12-28T17:55:56.110Z,4.36
2022-12-28T18:01:03.239Z,4.39
2022-12-28T18:06:09.509Z,4.40
2022-12-28T18:11:16.067Z,4.41
2022-12-28T18:16:21.932Z,4.40
2022-12-28T18:21:28.544Z,4.42
2022-12-28T18:26:34.427Z,4.50
2022-12-28T18:31:40.191Z,4.61
2022-12-28T18:36:46.144Z,4.68
2022-12-28T18:41:52.263Z,4.73
2022-12-28T18:46:58.163Z,4.75
2022-12-28T18:52:04.416Z,4.74
2022-12-28T18:57:10.976Z,4.75
2022-12-28T19:02:19.675Z,4.82
2022-12-28T19:07:26.854Z,4.87
2022-12-28T19:12:32.583Z,4.89
2022-12-28T19:17:38.395Z,4.89
2022-12-28T19:22:44.096Z,4.89
2022-12-28T19:27:50.791Z,4.88
2022-12-28T19:32:56.765Z,4.87
2022-12-28T19:38:02.562Z,4.88
2022-12-28T19:43:08.179Z,4.94
2022-12-28T19:48:13.892Z,5.02
2022-12-28T19:53:19.727Z,5.07
2022-12-28T19:58:25.725Z,5.09
2022-12-28T20:03:32.013Z,5.11
2022-12-28T20:08:38.685Z,5.10
2022-12-28T20:13:44.722Z,5.10
2022-12-28T20:18:51.829Z,5.13
2022-12-28T20:23:57.610Z,5.20
2022-12-28T20:29:04.922Z,5.25
2022-12-28T20:34:10.781Z,5.30
2022-12-28T20:39:16.583Z,5.30
2022-12-28T20:44:29.090Z,5.29
2022-12-28T20:49:35.851Z,5.26
2022-12-28T20:54:41.622Z,5.24
2022-12-28T20:59:47.384Z,5.26
2022-12-28T21:04:53.399Z,5.31
2022-12-28T21:09:59.276Z,5.34
2022-12-28T21:15:06.348Z,5.33
2022-12-28T21:20:12.791Z,5.29
2022-12-28T21:25:18.679Z,5.27
2022-12-28T21:30:24.495Z,5.29
2022-12-28T21:35:34.084Z,5.35
2022-12-28T21:40:40.789Z,5.40
2022-12-28T21:45:58.469Z,5.41
2022-12-28T21:51:29.641Z,5.42
2022-12-28T21:56:36.782Z,5.42
2022-12-28T22:02:01.932Z,5.46
2022-12-28T22:07:10.968Z,5.49
2022-12-28T22:12:35.773Z,5.51
2022-12-28T22:17:42.157Z,5.51
2022-12-28T22:22:47.866Z,5.49
2022-12-28T22:27:53.844Z,5.47
2022-12-28T22:32:59.539Z,5.50
2022-12-28T22:38:05.314Z,5.53
2022-12-28T22:43:11.024Z,5.54
2022-12-28T22:48:17.089Z,5.52
2022-12-28T22:53:22.776Z,5.48
2022-12-28T22:58:28.921Z,5.44
2022-12-28T23:03:36.671Z,5.43
2022-12-28T23:08:42.846Z,5.44
2022-12-28T23:13:48.569Z,5.43
2022-12-28T23:19:13.463Z,5.41
2022-12-28T23:24:38.065Z,5.38
2022-12-28T23:29:44.581Z,5.35
2022-12-28T23:34:51.707Z,5.34
2022-12-28T23:39:57.529Z,5.39
2022-12-28T23:45:03.377Z,5.43
2022-12-28T23:50:10.811Z,5.44
2022-12-28T23:55:17.122Z,5.43
